sensor_id;sensor_type;location;lat;lon;timestamp;P1;durP1;ratioP1;P2;durP2;ratioP2
13238;SDS011;6686;51.292;4.166;2023-02-16T00:02:11;52.47;;;34.23;;
13238;SDS011;6686;51.292;4.166;2023-02-16T00:04:57;52.90;;;32.97;;
13238;SDS011;6686;51.292;4.166;2023-02-16T00:07:43;54.05;;;40.95;;
13238;SDS011;6686;51.292;4.166;2023-02-16T00:10:34;55.27;;;36.43;;
13238;SDS011;6686;51.292;4.166;2023-02-16T00:13:22;56.63;;;37.00;;
13238;SDS011;6686;51.292;4.166;2023-02-16T00:16:23;55.17;;;42.13;;
13238;SDS011;6686;51.292;4.166;2023-02-16T00:19:25;56.37;;;41.67;;
13238;SDS011;6686;51.292;4.166;2023-02-16T00:22:12;53.07;;;35.57;;
13238;SDS011;6686;51.292;4.166;2023-02-16T00:24:59;50.07;;;35.23;;
13238;SDS011;6686;51.292;4.166;2023-02-16T00:27:45;58.40;;;40.92;;
13238;SDS011;6686;51.292;4.166;2023-02-16T00:30:32;57.53;;;38.27;;
13238;SDS011;6686;51.292;4.166;2023-02-16T00:33:18;52.10;;;35.10;;
13238;SDS011;6686;51.292;4.166;2023-02-16T00:36:04;52.27;;;35.20;;
13238;SDS011;6686;51.292;4.166;2023-02-16T00:38:50;52.50;;;34.83;;
13238;SDS011;6686;51.292;4.166;2023-02-16T00:41:35;52.83;;;35.57;;
13238;SDS011;6686;51.292;4.166;2023-02-16T00:44:47;52.57;;;34.87;;
13238;SDS011;6686;51.292;4.166;2023-02-16T00:47:42;53.17;;;34.93;;
13238;SDS011;6686;51.292;4.166;2023-02-16T00:50:31;55.80;;;35.93;;
13238;SDS011;6686;51.292;4.166;2023-02-16T00:53:16;57.20;;;36.80;;
13238;SDS011;6686;51.292;4.166;2023-02-16T00:56:02;51.40;;;34.30;;
13238;SDS011;6686;51.292;4.166;2023-02-16T00:58:48;58.50;;;36.37;;
13238;SDS011;6686;51.292;4.166;2023-02-16T01:01:34;53.37;;;34.73;;
13238;SDS011;6686;51.292;4.166;2023-02-16T01:04:21;53.70;;;35.93;;
13238;SDS011;6686;51.292;4.166;2023-02-16T01:07:09;58.53;;;37.50;;
13238;SDS011;6686;51.292;4.166;2023-02-16T01:10:09;57.77;;;36.53;;
13238;SDS011;6686;51.292;4.166;2023-02-16T01:13:14;59.07;;;36.73;;
13238;SDS011;6686;51.292;4.166;2023-02-16T01:16:00;63.27;;;38.63;;
13238;SDS011;6686;51.292;4.166;2023-02-16T01:18:46;57.10;;;37.10;;
13238;SDS011;6686;51.292;4.166;2023-02-16T01:21:31;54.53;;;37.20;;
13238;SDS011;6686;51.292;4.166;2023-02-16T01:24:17;54.77;;;37.17;;
13238;SDS011;6686;51.292;4.166;2023-02-16T01:27:03;54.53;;;37.23;;
13238;SDS011;6686;51.292;4.166;2023-02-16T01:29:49;54.63;;;37.47;;
13238;SDS011;6686;51.292;4.166;2023-02-16T01:32:35;53.53;;;38.47;;
13238;SDS011;6686;51.292;4.166;2023-02-16T01:35:22;57.03;;;37.83;;
13238;SDS011;6686;51.292;4.166;2023-02-16T01:38:11;54.57;;;37.07;;
13238;SDS011;6686;51.292;4.166;2023-02-16T01:41:00;57.00;;;37.40;;
13238;SDS011;6686;51.292;4.166;2023-02-16T01:43:55;53.30;;;37.63;;
13238;SDS011;6686;51.292;4.166;2023-02-16T01:49:43;55.20;;;37.10;;
13238;SDS011;6686;51.292;4.166;2023-02-16T01:52:31;63.87;;;38.73;;
13238;SDS011;6686;51.292;4.166;2023-02-16T02:01:37;54.73;;;37.13;;
13238;SDS011;6686;51.292;4.166;2023-02-16T02:04:31;59.97;;;37.83;;
13238;SDS011;6686;51.292;4.166;2023-02-16T02:10:36;66.62;;;47.78;;
13238;SDS011;6686;51.292;4.166;2023-02-16T02:16:28;58.70;;;39.57;;
13238;SDS011;6686;51.292;4.166;2023-02-16T02:19:14;59.47;;;39.33;;
13238;SDS011;6686;51.292;4.166;2023-02-16T02:25:39;59.87;;;38.30;;
13238;SDS011;6686;51.292;4.166;2023-02-16T02:28:22;65.07;;;46.85;;
13238;SDS011;6686;51.292;4.166;2023-02-16T02:32:00;65.97;;;47.72;;
13238;SDS011;6686;51.292;4.166;2023-02-16T02:37:04;56.50;;;38.93;;
13238;SDS011;6686;51.292;4.166;2023-02-16T02:43:10;58.53;;;40.23;;
13238;SDS011;6686;51.292;4.166;2023-02-16T02:46:08;64.68;;;46.72;;
13238;SDS011;6686;51.292;4.166;2023-02-16T02:48:50;62.67;;;47.60;;
13238;SDS011;6686;51.292;4.166;2023-02-16T02:51:36;56.87;;;40.37;;
13238;SDS011;6686;51.292;4.166;2023-02-16T02:54:22;60.87;;;40.70;;
13238;SDS011;6686;51.292;4.166;2023-02-16T03:00:40;61.83;;;48.70;;
13238;SDS011;6686;51.292;4.166;2023-02-16T03:03:28;57.93;;;41.17;;
13238;SDS011;6686;51.292;4.166;2023-02-16T03:09:08;60.07;;;41.13;;
13238;SDS011;6686;51.292;4.166;2023-02-16T03:11:48;63.57;;;40.10;;
13238;SDS011;6686;51.292;4.166;2023-02-16T03:14:55;57.63;;;39.40;;
13238;SDS011;6686;51.292;4.166;2023-02-16T03:17:41;60.57;;;39.70;;
13238;SDS011;6686;51.292;4.166;2023-02-16T03:20:45;56.17;;;38.20;;
13238;SDS011;6686;51.292;4.166;2023-02-16T03:23:49;62.63;;;39.73;;
13238;SDS011;6686;51.292;4.166;2023-02-16T03:26:54;55.37;;;39.00;;
13238;SDS011;6686;51.292;4.166;2023-02-16T03:29:59;58.33;;;38.53;;
13238;SDS011;6686;51.292;4.166;2023-02-16T03:32:45;56.83;;;38.43;;
13238;SDS011;6686;51.292;4.166;2023-02-16T03:35:31;63.37;;;40.70;;
13238;SDS011;6686;51.292;4.166;2023-02-16T03:38:17;57.10;;;39.30;;
13238;SDS011;6686;51.292;4.166;2023-02-16T03:41:03;58.47;;;39.83;;
13238;SDS011;6686;51.292;4.166;2023-02-16T03:43:48;59.17;;;40.03;;
13238;SDS011;6686;51.292;4.166;2023-02-16T03:46:34;55.00;;;38.70;;
13238;SDS011;6686;51.292;4.166;2023-02-16T03:49:20;53.13;;;38.47;;
13238;SDS011;6686;51.292;4.166;2023-02-16T03:52:06;66.47;;;47.83;;
13238;SDS011;6686;51.292;4.166;2023-02-16T03:54:51;58.67;;;40.53;;
13238;SDS011;6686;51.292;4.166;2023-02-16T03:57:37;58.37;;;39.60;;
13238;SDS011;6686;51.292;4.166;2023-02-16T04:00:23;57.73;;;38.20;;
13238;SDS011;6686;51.292;4.166;2023-02-16T04:03:09;58.67;;;40.10;;
13238;SDS011;6686;51.292;4.166;2023-02-16T04:05:55;64.87;;;42.20;;
13238;SDS011;6686;51.292;4.166;2023-02-16T04:08:41;60.47;;;40.47;;
13238;SDS011;6686;51.292;4.166;2023-02-16T04:11:30;56.70;;;39.70;;
13238;SDS011;6686;51.292;4.166;2023-02-16T04:14:34;57.23;;;37.87;;
13238;SDS011;6686;51.292;4.166;2023-02-16T04:17:20;64.47;;;39.47;;
13238;SDS011;6686;51.292;4.166;2023-02-16T04:20:07;54.37;;;37.10;;
13238;SDS011;6686;51.292;4.166;2023-02-16T04:22:52;58.97;;;39.90;;
13238;SDS011;6686;51.292;4.166;2023-02-16T04:25:38;57.47;;;38.53;;
13238;SDS011;6686;51.292;4.166;2023-02-16T04:28:24;59.13;;;38.73;;
13238;SDS011;6686;51.292;4.166;2023-02-16T04:31:10;57.73;;;38.70;;
13238;SDS011;6686;51.292;4.166;2023-02-16T04:33:57;59.77;;;39.60;;
13238;SDS011;6686;51.292;4.166;2023-02-16T04:36:42;56.47;;;38.70;;
13238;SDS011;6686;51.292;4.166;2023-02-16T04:39:28;57.87;;;37.07;;
13238;SDS011;6686;51.292;4.166;2023-02-16T04:42:14;59.50;;;39.20;;
13238;SDS011;6686;51.292;4.166;2023-02-16T04:45:01;64.60;;;40.37;;
13238;SDS011;6686;51.292;4.166;2023-02-16T04:47:47;55.50;;;38.60;;
13238;SDS011;6686;51.292;4.166;2023-02-16T04:50:33;57.13;;;37.73;;
13238;SDS011;6686;51.292;4.166;2023-02-16T04:53:19;58.03;;;37.67;;
13238;SDS011;6686;51.292;4.166;2023-02-16T04:56:07;55.33;;;37.20;;
13238;SDS011;6686;51.292;4.166;2023-02-16T04:58:50;55.00;;;36.70;;
13238;SDS011;6686;51.292;4.166;2023-02-16T05:01:36;52.87;;;36.93;;
13238;SDS011;6686;51.292;4.166;2023-02-16T05:04:23;60.72;;;45.60;;
13238;SDS011;6686;51.292;4.166;2023-02-16T05:07:08;55.70;;;38.27;;
13238;SDS011;6686;51.292;4.166;2023-02-16T05:09:54;50.20;;;37.53;;
13238;SDS011;6686;51.292;4.166;2023-02-16T05:12:39;55.40;;;37.37;;
13238;SDS011;6686;51.292;4.166;2023-02-16T05:15:44;48.50;;;36.53;;
13238;SDS011;6686;51.292;4.166;2023-02-16T05:18:30;61.10;;;37.20;;
13238;SDS011;6686;51.292;4.166;2023-02-16T05:21:16;59.40;;;43.92;;
13238;SDS011;6686;51.292;4.166;2023-02-16T05:24:17;57.67;;;38.87;;
13238;SDS011;6686;51.292;4.166;2023-02-16T05:27:04;60.67;;;45.10;;
13238;SDS011;6686;51.292;4.166;2023-02-16T05:29:49;52.37;;;37.67;;
13238;SDS011;6686;51.292;4.166;2023-02-16T05:32:35;51.87;;;36.43;;
13238;SDS011;6686;51.292;4.166;2023-02-16T05:35:21;54.67;;;37.10;;
13238;SDS011;6686;51.292;4.166;2023-02-16T05:38:07;56.37;;;37.13;;
13238;SDS011;6686;51.292;4.166;2023-02-16T05:40:53;52.40;;;36.47;;
13238;SDS011;6686;51.292;4.166;2023-02-16T05:43:39;57.00;;;36.50;;
13238;SDS011;6686;51.292;4.166;2023-02-16T05:46:26;52.30;;;34.67;;
13238;SDS011;6686;51.292;4.166;2023-02-16T05:49:14;52.87;;;35.53;;
13238;SDS011;6686;51.292;4.166;2023-02-16T05:52:00;48.80;;;34.80;;
13238;SDS011;6686;51.292;4.166;2023-02-16T05:54:46;50.33;;;35.40;;
13238;SDS011;6686;51.292;4.166;2023-02-16T05:57:31;54.27;;;36.33;;
13238;SDS011;6686;51.292;4.166;2023-02-16T06:00:17;54.73;;;37.40;;
13238;SDS011;6686;51.292;4.166;2023-02-16T06:03:04;57.53;;;43.45;;
13238;SDS011;6686;51.292;4.166;2023-02-16T06:05:53;55.63;;;44.20;;
13238;SDS011;6686;51.292;4.166;2023-02-16T06:08:39;53.23;;;38.23;;
13238;SDS011;6686;51.292;4.166;2023-02-16T06:11:25;53.17;;;42.25;;
13238;SDS011;6686;51.292;4.166;2023-02-16T06:14:20;50.87;;;36.13;;
13238;SDS011;6686;51.292;4.166;2023-02-16T06:17:05;48.00;;;35.60;;
13238;SDS011;6686;51.292;4.166;2023-02-16T06:19:51;46.80;;;34.73;;
13238;SDS011;6686;51.292;4.166;2023-02-16T06:22:37;51.17;;;36.33;;
13238;SDS011;6686;51.292;4.166;2023-02-16T06:25:23;49.03;;;34.80;;
13238;SDS011;6686;51.292;4.166;2023-02-16T06:28:10;46.63;;;33.33;;
13238;SDS011;6686;51.292;4.166;2023-02-16T06:30:55;51.43;;;41.10;;
13238;SDS011;6686;51.292;4.166;2023-02-16T06:33:41;50.57;;;36.10;;
13238;SDS011;6686;51.292;4.166;2023-02-16T06:36:27;49.90;;;34.77;;
13238;SDS011;6686;51.292;4.166;2023-02-16T06:39:13;51.27;;;34.53;;
13238;SDS011;6686;51.292;4.166;2023-02-16T06:41:59;52.40;;;35.47;;
13238;SDS011;6686;51.292;4.166;2023-02-16T06:44:45;50.73;;;34.60;;
13238;SDS011;6686;51.292;4.166;2023-02-16T06:47:31;47.13;;;34.60;;
13238;SDS011;6686;51.292;4.166;2023-02-16T06:50:17;50.47;;;34.93;;
13238;SDS011;6686;51.292;4.166;2023-02-16T06:53:03;51.85;;;40.90;;
13238;SDS011;6686;51.292;4.166;2023-02-16T06:55:49;47.80;;;34.33;;
13238;SDS011;6686;51.292;4.166;2023-02-16T06:58:35;52.97;;;34.67;;
13238;SDS011;6686;51.292;4.166;2023-02-16T07:01:21;49.37;;;34.23;;
13238;SDS011;6686;51.292;4.166;2023-02-16T07:04:07;49.73;;;35.17;;
13238;SDS011;6686;51.292;4.166;2023-02-16T07:06:53;47.67;;;33.83;;
13238;SDS011;6686;51.292;4.166;2023-02-16T07:09:39;51.63;;;36.97;;
13238;SDS011;6686;51.292;4.166;2023-02-16T07:12:25;47.23;;;34.90;;
13238;SDS011;6686;51.292;4.166;2023-02-16T07:15:10;47.37;;;32.83;;
13238;SDS011;6686;51.292;4.166;2023-02-16T07:17:56;50.27;;;39.47;;
13238;SDS011;6686;51.292;4.166;2023-02-16T07:20:42;50.13;;;34.70;;
13238;SDS011;6686;51.292;4.166;2023-02-16T07:23:27;44.90;;;33.27;;
13238;SDS011;6686;51.292;4.166;2023-02-16T07:26:13;48.22;;;38.55;;
13238;SDS011;6686;51.292;4.166;2023-02-16T07:28:59;48.60;;;39.10;;
13238;SDS011;6686;51.292;4.166;2023-02-16T07:31:45;48.17;;;34.07;;
13238;SDS011;6686;51.292;4.166;2023-02-16T07:34:31;48.17;;;33.50;;
13238;SDS011;6686;51.292;4.166;2023-02-16T07:37:17;43.87;;;33.20;;
13238;SDS011;6686;51.292;4.166;2023-02-16T07:40:03;43.33;;;31.50;;
13238;SDS011;6686;51.292;4.166;2023-02-16T07:42:49;49.87;;;32.73;;
13238;SDS011;6686;51.292;4.166;2023-02-16T07:45:35;48.40;;;32.97;;
13238;SDS011;6686;51.292;4.166;2023-02-16T07:48:21;49.28;;;39.00;;
13238;SDS011;6686;51.292;4.166;2023-02-16T07:51:06;46.67;;;33.67;;
13238;SDS011;6686;51.292;4.166;2023-02-16T07:53:52;48.97;;;34.73;;
13238;SDS011;6686;51.292;4.166;2023-02-16T07:56:38;46.90;;;33.30;;
13238;SDS011;6686;51.292;4.166;2023-02-16T07:59:24;40.47;;;31.33;;
13238;SDS011;6686;51.292;4.166;2023-02-16T08:02:17;45.13;;;33.17;;
13238;SDS011;6686;51.292;4.166;2023-02-16T08:04:59;46.40;;;32.43;;
13238;SDS011;6686;51.292;4.166;2023-02-16T08:07:45;51.87;;;32.67;;
13238;SDS011;6686;51.292;4.166;2023-02-16T08:10:31;51.10;;;33.43;;
13238;SDS011;6686;51.292;4.166;2023-02-16T08:13:17;50.77;;;35.00;;
13238;SDS011;6686;51.292;4.166;2023-02-16T08:16:06;54.63;;;34.00;;
13238;SDS011;6686;51.292;4.166;2023-02-16T08:18:53;47.40;;;32.77;;
13238;SDS011;6686;51.292;4.166;2023-02-16T08:21:38;45.77;;;31.77;;
13238;SDS011;6686;51.292;4.166;2023-02-16T08:24:24;51.67;;;40.47;;
13238;SDS011;6686;51.292;4.166;2023-02-16T08:27:10;49.63;;;35.40;;
13238;SDS011;6686;51.292;4.166;2023-02-16T08:29:56;50.43;;;40.70;;
13238;SDS011;6686;51.292;4.166;2023-02-16T08:32:41;48.70;;;34.03;;
13238;SDS011;6686;51.292;4.166;2023-02-16T08:35:27;46.90;;;33.50;;
13238;SDS011;6686;51.292;4.166;2023-02-16T08:38:13;46.30;;;32.87;;
13238;SDS011;6686;51.292;4.166;2023-02-16T08:40:59;52.50;;;41.33;;
13238;SDS011;6686;51.292;4.166;2023-02-16T08:43:45;48.87;;;39.67;;
13238;SDS011;6686;51.292;4.166;2023-02-16T08:46:31;50.90;;;40.22;;
13238;SDS011;6686;51.292;4.166;2023-02-16T08:49:17;47.83;;;35.50;;
13238;SDS011;6686;51.292;4.166;2023-02-16T08:52:03;52.97;;;40.58;;
13238;SDS011;6686;51.292;4.166;2023-02-16T08:54:48;50.87;;;36.63;;
13238;SDS011;6686;51.292;4.166;2023-02-16T08:57:35;49.40;;;34.10;;
13238;SDS011;6686;51.292;4.166;2023-02-16T09:00:20;52.43;;;35.07;;
13238;SDS011;6686;51.292;4.166;2023-02-16T09:03:18;49.30;;;33.27;;
13238;SDS011;6686;51.292;4.166;2023-02-16T09:06:04;49.53;;;34.23;;
13238;SDS011;6686;51.292;4.166;2023-02-16T09:08:51;48.27;;;33.50;;
13238;SDS011;6686;51.292;4.166;2023-02-16T09:11:36;48.17;;;33.17;;
13238;SDS011;6686;51.292;4.166;2023-02-16T09:14:22;48.13;;;34.10;;
13238;SDS011;6686;51.292;4.166;2023-02-16T09:17:08;53.53;;;35.77;;
13238;SDS011;6686;51.292;4.166;2023-02-16T09:19:54;49.50;;;34.13;;
13238;SDS011;6686;51.292;4.166;2023-02-16T09:22:42;47.50;;;32.50;;
13238;SDS011;6686;51.292;4.166;2023-02-16T09:25:25;49.30;;;34.40;;
13238;SDS011;6686;51.292;4.166;2023-02-16T09:28:11;49.00;;;35.63;;
13238;SDS011;6686;51.292;4.166;2023-02-16T09:30:58;46.87;;;33.27;;
13238;SDS011;6686;51.292;4.166;2023-02-16T09:33:44;53.20;;;40.92;;
13238;SDS011;6686;51.292;4.166;2023-02-16T09:36:32;55.63;;;35.57;;
13238;SDS011;6686;51.292;4.166;2023-02-16T09:39:15;46.20;;;35.20;;
13238;SDS011;6686;51.292;4.166;2023-02-16T09:45:18;49.53;;;34.53;;
13238;SDS011;6686;51.292;4.166;2023-02-16T09:48:04;49.37;;;34.10;;
13238;SDS011;6686;51.292;4.166;2023-02-16T09:50:50;48.80;;;35.03;;
13238;SDS011;6686;51.292;4.166;2023-02-16T09:56:26;52.13;;;34.33;;
13238;SDS011;6686;51.292;4.166;2023-02-16T10:05:17;46.73;;;34.77;;
13238;SDS011;6686;51.292;4.166;2023-02-16T10:08:43;48.57;;;34.23;;
13238;SDS011;6686;51.292;4.166;2023-02-16T10:11:25;50.23;;;35.67;;
13238;SDS011;6686;51.292;4.166;2023-02-16T10:17:27;53.60;;;35.47;;
13238;SDS011;6686;51.292;4.166;2023-02-16T10:26:16;50.97;;;34.30;;
13238;SDS011;6686;51.292;4.166;2023-02-16T10:29:09;52.27;;;35.50;;
13238;SDS011;6686;51.292;4.166;2023-02-16T10:35:03;48.63;;;34.63;;
13238;SDS011;6686;51.292;4.166;2023-02-16T10:37:50;49.47;;;34.73;;
13238;SDS011;6686;51.292;4.166;2023-02-16T10:44:35;47.43;;;33.17;;
13238;SDS011;6686;51.292;4.166;2023-02-16T10:46:46;46.93;;;32.97;;
13238;SDS011;6686;51.292;4.166;2023-02-16T10:49:31;49.70;;;33.07;;
13238;SDS011;6686;51.292;4.166;2023-02-16T10:52:17;46.37;;;32.27;;
13238;SDS011;6686;51.292;4.166;2023-02-16T10:55:03;41.00;;;31.07;;
13238;SDS011;6686;51.292;4.166;2023-02-16T10:57:51;43.47;;;30.67;;
13238;SDS011;6686;51.292;4.166;2023-02-16T11:00:44;43.80;;;30.97;;
13238;SDS011;6686;51.292;4.166;2023-02-16T11:03:30;41.47;;;31.23;;
13238;SDS011;6686;51.292;4.166;2023-02-16T11:06:17;40.40;;;29.93;;
13238;SDS011;6686;51.292;4.166;2023-02-16T11:09:05;47.43;;;30.30;;
13238;SDS011;6686;51.292;4.166;2023-02-16T11:11:51;41.13;;;30.10;;
13238;SDS011;6686;51.292;4.166;2023-02-16T11:14:37;40.63;;;29.73;;
13238;SDS011;6686;51.292;4.166;2023-02-16T11:17:23;36.63;;;27.87;;
13238;SDS011;6686;51.292;4.166;2023-02-16T11:20:22;39.80;;;28.70;;
13238;SDS011;6686;51.292;4.166;2023-02-16T11:26:06;37.10;;;27.43;;
13238;SDS011;6686;51.292;4.166;2023-02-16T11:29:00;41.47;;;31.70;;
13238;SDS011;6686;51.292;4.166;2023-02-16T11:31:40;43.57;;;27.50;;
13238;SDS011;6686;51.292;4.166;2023-02-16T11:34:33;33.57;;;25.60;;
13238;SDS011;6686;51.292;4.166;2023-02-16T11:40:17;35.63;;;25.23;;
13238;SDS011;6686;51.292;4.166;2023-02-16T11:43:04;34.43;;;23.50;;
13238;SDS011;6686;51.292;4.166;2023-02-16T11:49:18;35.57;;;25.17;;
13238;SDS011;6686;51.292;4.166;2023-02-16T11:51:45;35.60;;;29.63;;
13238;SDS011;6686;51.292;4.166;2023-02-16T11:54:31;33.00;;;25.27;;
13238;SDS011;6686;51.292;4.166;2023-02-16T11:57:28;31.13;;;24.70;;
13238;SDS011;6686;51.292;4.166;2023-02-16T12:00:09;31.62;;;26.70;;
13238;SDS011;6686;51.292;4.166;2023-02-16T12:03:05;30.67;;;23.37;;
13238;SDS011;6686;51.292;4.166;2023-02-16T12:08:57;32.87;;;26.90;;
13238;SDS011;6686;51.292;4.166;2023-02-16T12:17:31;30.23;;;22.47;;
13238;SDS011;6686;51.292;4.166;2023-02-16T12:32:42;29.73;;;20.17;;
13238;SDS011;6686;51.292;4.166;2023-02-16T12:35:40;27.43;;;21.73;;
13238;SDS011;6686;51.292;4.166;2023-02-16T12:44:45;27.62;;;22.27;;
13238;SDS011;6686;51.292;4.166;2023-02-16T12:47:35;24.47;;;20.17;;
13238;SDS011;6686;51.292;4.166;2023-02-16T12:50:19;27.40;;;20.70;;
13238;SDS011;6686;51.292;4.166;2023-02-16T12:53:07;23.07;;;18.97;;
13238;SDS011;6686;51.292;4.166;2023-02-16T12:56:02;24.50;;;17.80;;
13238;SDS011;6686;51.292;4.166;2023-02-16T12:58:44;25.00;;;19.40;;
13238;SDS011;6686;51.292;4.166;2023-02-16T13:01:30;26.23;;;19.33;;
13238;SDS011;6686;51.292;4.166;2023-02-16T13:04:17;25.00;;;19.70;;
13238;SDS011;6686;51.292;4.166;2023-02-16T13:07:20;29.23;;;19.80;;
13238;SDS011;6686;51.292;4.166;2023-02-16T13:10:18;25.00;;;19.60;;
13238;SDS011;6686;51.292;4.166;2023-02-16T13:13:09;26.70;;;20.67;;
13238;SDS011;6686;51.292;4.166;2023-02-16T13:17:00;24.83;;;19.60;;
13238;SDS011;6686;51.292;4.166;2023-02-16T13:19:04;27.85;;;22.02;;
13238;SDS011;6686;51.292;4.166;2023-02-16T13:24:59;26.40;;;19.83;;
13238;SDS011;6686;51.292;4.166;2023-02-16T13:27:44;27.52;;;22.00;;
13238;SDS011;6686;51.292;4.166;2023-02-16T13:34:10;27.03;;;18.50;;
13238;SDS011;6686;51.292;4.166;2023-02-16T13:36:53;25.80;;;18.87;;
13238;SDS011;6686;51.292;4.166;2023-02-16T13:39:40;24.63;;;17.93;;
13238;SDS011;6686;51.292;4.166;2023-02-16T13:42:48;24.50;;;18.37;;
13238;SDS011;6686;51.292;4.166;2023-02-16T13:45:42;21.93;;;17.50;;
13238;SDS011;6686;51.292;4.166;2023-02-16T13:48:28;25.73;;;17.83;;
13238;SDS011;6686;51.292;4.166;2023-02-16T13:51:17;23.43;;;17.40;;
13238;SDS011;6686;51.292;4.166;2023-02-16T13:54:05;22.47;;;16.53;;
13238;SDS011;6686;51.292;4.166;2023-02-16T13:56:50;25.97;;;17.97;;
13238;SDS011;6686;51.292;4.166;2023-02-16T14:05:38;22.77;;;17.50;;
13238;SDS011;6686;51.292;4.166;2023-02-16T14:08:26;22.47;;;16.33;;
13238;SDS011;6686;51.292;4.166;2023-02-16T14:11:12;20.47;;;15.50;;
13238;SDS011;6686;51.292;4.166;2023-02-16T14:13:57;23.65;;;18.98;;
13238;SDS011;6686;51.292;4.166;2023-02-16T14:16:44;20.97;;;16.50;;
13238;SDS011;6686;51.292;4.166;2023-02-16T14:19:29;24.40;;;17.00;;
13238;SDS011;6686;51.292;4.166;2023-02-16T14:22:19;23.47;;;17.00;;
13238;SDS011;6686;51.292;4.166;2023-02-16T14:25:05;24.43;;;17.00;;
13238;SDS011;6686;51.292;4.166;2023-02-16T14:30:52;19.50;;;15.37;;
13238;SDS011;6686;51.292;4.166;2023-02-16T14:39:53;24.33;;;17.50;;
13238;SDS011;6686;51.292;4.166;2023-02-16T14:42:43;22.30;;;17.73;;
13238;SDS011;6686;51.292;4.166;2023-02-16T14:55:08;23.77;;;16.30;;
13238;SDS011;6686;51.292;4.166;2023-02-16T14:58:21;23.33;;;17.27;;
13238;SDS011;6686;51.292;4.166;2023-02-16T15:01:23;22.17;;;17.37;;
13238;SDS011;6686;51.292;4.166;2023-02-16T15:04:09;23.90;;;18.00;;
13238;SDS011;6686;51.292;4.166;2023-02-16T15:06:55;26.53;;;17.40;;
13238;SDS011;6686;51.292;4.166;2023-02-16T15:09:40;25.77;;;19.27;;
13238;SDS011;6686;51.292;4.166;2023-02-16T15:12:27;22.60;;;18.90;;
13238;SDS011;6686;51.292;4.166;2023-02-16T15:15:20;20.67;;;16.73;;
13238;SDS011;6686;51.292;4.166;2023-02-16T15:18:05;23.57;;;17.90;;
13238;SDS011;6686;51.292;4.166;2023-02-16T15:20:51;25.80;;;16.77;;
13238;SDS011;6686;51.292;4.166;2023-02-16T15:23:37;24.97;;;17.90;;
13238;SDS011;6686;51.292;4.166;2023-02-16T15:26:28;25.13;;;17.60;;
13238;SDS011;6686;51.292;4.166;2023-02-16T15:29:28;25.27;;;20.00;;
13238;SDS011;6686;51.292;4.166;2023-02-16T15:32:00;24.00;;;18.63;;
13238;SDS011;6686;51.292;4.166;2023-02-16T15:34:46;22.77;;;17.17;;
13238;SDS011;6686;51.292;4.166;2023-02-16T15:37:32;22.67;;;17.03;;
13238;SDS011;6686;51.292;4.166;2023-02-16T15:43:31;25.90;;;18.27;;
13238;SDS011;6686;51.292;4.166;2023-02-16T15:46:25;23.13;;;17.83;;
13238;SDS011;6686;51.292;4.166;2023-02-16T15:49:11;22.73;;;19.48;;
13238;SDS011;6686;51.292;4.166;2023-02-16T15:51:59;24.00;;;18.07;;
13238;SDS011;6686;51.292;4.166;2023-02-16T15:54:45;21.57;;;18.67;;
13238;SDS011;6686;51.292;4.166;2023-02-16T15:57:34;26.00;;;18.67;;
13238;SDS011;6686;51.292;4.166;2023-02-16T16:00:23;24.40;;;17.63;;
13238;SDS011;6686;51.292;4.166;2023-02-16T16:03:11;27.60;;;20.67;;
13238;SDS011;6686;51.292;4.166;2023-02-16T16:05:57;35.87;;;20.13;;
13238;SDS011;6686;51.292;4.166;2023-02-16T16:08:44;23.10;;;18.60;;
13238;SDS011;6686;51.292;4.166;2023-02-16T16:11:37;26.55;;;21.87;;
13238;SDS011;6686;51.292;4.166;2023-02-16T16:14:26;26.30;;;20.47;;
13238;SDS011;6686;51.292;4.166;2023-02-16T16:17:12;28.07;;;18.80;;
13238;SDS011;6686;51.292;4.166;2023-02-16T16:20:16;27.55;;;23.05;;
13238;SDS011;6686;51.292;4.166;2023-02-16T16:22:44;26.60;;;19.43;;
13238;SDS011;6686;51.292;4.166;2023-02-16T16:34:08;29.87;;;20.43;;
13238;SDS011;6686;51.292;4.166;2023-02-16T16:36:55;26.23;;;20.67;;
13238;SDS011;6686;51.292;4.166;2023-02-16T16:39:41;24.73;;;19.77;;
13238;SDS011;6686;51.292;4.166;2023-02-16T16:42:27;31.60;;;20.13;;
13238;SDS011;6686;51.292;4.166;2023-02-16T16:48:09;28.00;;;19.47;;
13238;SDS011;6686;51.292;4.166;2023-02-16T16:51:14;31.75;;;24.48;;
13238;SDS011;6686;51.292;4.166;2023-02-16T16:54:01;27.17;;;21.07;;
13238;SDS011;6686;51.292;4.166;2023-02-16T16:56:46;31.77;;;24.58;;
13238;SDS011;6686;51.292;4.166;2023-02-16T16:59:32;31.23;;;21.47;;
13238;SDS011;6686;51.292;4.166;2023-02-16T17:02:18;31.37;;;25.12;;
13238;SDS011;6686;51.292;4.166;2023-02-16T17:05:04;31.58;;;24.90;;
13238;SDS011;6686;51.292;4.166;2023-02-16T17:07:57;30.05;;;25.12;;
13238;SDS011;6686;51.292;4.166;2023-02-16T17:10:43;26.90;;;17.80;;
13238;SDS011;6686;51.292;4.166;2023-02-16T17:13:29;22.77;;;17.20;;
13238;SDS011;6686;51.292;4.166;2023-02-16T17:16:15;22.50;;;16.17;;
13238;SDS011;6686;51.292;4.166;2023-02-16T17:19:01;21.50;;;16.63;;
13238;SDS011;6686;51.292;4.166;2023-02-16T17:21:47;22.43;;;15.83;;
13238;SDS011;6686;51.292;4.166;2023-02-16T17:24:33;24.57;;;17.00;;
13238;SDS011;6686;51.292;4.166;2023-02-16T17:27:19;25.20;;;18.90;;
13238;SDS011;6686;51.292;4.166;2023-02-16T17:30:06;32.37;;;20.40;;
13238;SDS011;6686;51.292;4.166;2023-02-16T17:32:52;27.37;;;20.70;;
13238;SDS011;6686;51.292;4.166;2023-02-16T17:35:39;31.00;;;22.07;;
13238;SDS011;6686;51.292;4.166;2023-02-16T17:38:24;26.47;;;21.67;;
13238;SDS011;6686;51.292;4.166;2023-02-16T17:41:15;26.70;;;21.23;;
13238;SDS011;6686;51.292;4.166;2023-02-16T17:43:56;30.03;;;20.77;;
13238;SDS011;6686;51.292;4.166;2023-02-16T17:46:42;30.50;;;22.50;;
13238;SDS011;6686;51.292;4.166;2023-02-16T17:49:27;31.23;;;22.83;;
13238;SDS011;6686;51.292;4.166;2023-02-16T17:52:13;32.67;;;23.20;;
13238;SDS011;6686;51.292;4.166;2023-02-16T17:54:59;32.47;;;23.07;;
13238;SDS011;6686;51.292;4.166;2023-02-16T17:57:45;31.40;;;21.63;;
13238;SDS011;6686;51.292;4.166;2023-02-16T18:00:30;31.77;;;21.93;;
13238;SDS011;6686;51.292;4.166;2023-02-16T18:03:16;28.17;;;20.37;;
13238;SDS011;6686;51.292;4.166;2023-02-16T18:06:02;31.50;;;22.70;;
13238;SDS011;6686;51.292;4.166;2023-02-16T18:08:48;28.00;;;21.00;;
13238;SDS011;6686;51.292;4.166;2023-02-16T18:11:35;32.73;;;21.37;;
13238;SDS011;6686;51.292;4.166;2023-02-16T18:14:21;32.73;;;21.90;;
13238;SDS011;6686;51.292;4.166;2023-02-16T18:17:09;30.43;;;20.60;;
13238;SDS011;6686;51.292;4.166;2023-02-16T18:19:53;32.10;;;25.48;;
13238;SDS011;6686;51.292;4.166;2023-02-16T18:22:40;29.50;;;22.03;;
13238;SDS011;6686;51.292;4.166;2023-02-16T18:25:26;27.00;;;21.37;;
13238;SDS011;6686;51.292;4.166;2023-02-16T18:28:13;27.53;;;21.47;;
13238;SDS011;6686;51.292;4.166;2023-02-16T18:30:59;29.13;;;21.17;;
13238;SDS011;6686;51.292;4.166;2023-02-16T18:33:44;30.10;;;21.43;;
13238;SDS011;6686;51.292;4.166;2023-02-16T18:36:30;28.63;;;21.10;;
13238;SDS011;6686;51.292;4.166;2023-02-16T18:39:16;28.07;;;20.93;;
13238;SDS011;6686;51.292;4.166;2023-02-16T18:42:02;30.90;;;25.27;;
13238;SDS011;6686;51.292;4.166;2023-02-16T18:44:48;25.10;;;20.50;;
13238;SDS011;6686;51.292;4.166;2023-02-16T18:47:34;32.23;;;20.63;;
13238;SDS011;6686;51.292;4.166;2023-02-16T18:50:20;28.70;;;19.47;;
13238;SDS011;6686;51.292;4.166;2023-02-16T18:53:06;34.72;;;25.55;;
13238;SDS011;6686;51.292;4.166;2023-02-16T18:55:54;28.80;;;21.10;;
13238;SDS011;6686;51.292;4.166;2023-02-16T18:58:40;27.37;;;21.00;;